sensor_id;sensor_type;location;lat;lon;timestamp;P1;durP1;ratioP1;P2;durP2;ratioP2
55190;SDS011;41070;50.360;18.742;2022-12-07T00:00:46;20.70;;;10.50;;
55190;SDS011;41070;50.360;18.742;2022-12-07T00:03:42;24.70;;;12.50;;
55190;SDS011;41070;50.360;18.742;2022-12-07T00:06:36;21.70;;;11.90;;
55190;SDS011;41070;50.360;18.742;2022-12-07T00:18:07;22.00;;;11.70;;
55190;SDS011;41070;50.360;18.742;2022-12-07T00:20:45;19.80;;;9.70;;
55190;SDS011;41070;50.360;18.742;2022-12-07T00:23:13;21.00;;;9.60;;
55190;SDS011;41070;50.360;18.742;2022-12-07T00:25:41;19.70;;;10.60;;
55190;SDS011;41070;50.360;18.742;2022-12-07T00:28:08;19.20;;;10.10;;
55190;SDS011;41070;50.360;18.742;2022-12-07T00:30:37;23.50;;;10.80;;
55190;SDS011;41070;50.360;18.742;2022-12-07T00:33:04;21.00;;;10.40;;
55190;SDS011;41070;50.360;18.742;2022-12-07T00:35:32;18.50;;;10.40;;
55190;SDS011;41070;50.360;18.742;2022-12-07T00:37:59;21.40;;;10.10;;
55190;SDS011;41070;50.360;18.742;2022-12-07T00:40:27;17.30;;;10.20;;
55190;SDS011;41070;50.360;18.742;2022-12-07T00:42:54;20.90;;;11.60;;
55190;SDS011;41070;50.360;18.742;2022-12-07T00:45:22;22.40;;;11.40;;
55190;SDS011;41070;50.360;18.742;2022-12-07T00:47:50;22.50;;;11.40;;
55190;SDS011;41070;50.360;18.742;2022-12-07T00:50:17;19.40;;;10.70;;
55190;SDS011;41070;50.360;18.742;2022-12-07T00:52:45;21.30;;;11.50;;
55190;SDS011;41070;50.360;18.742;2022-12-07T00:55:12;17.70;;;9.90;;
55190;SDS011;41070;50.360;18.742;2022-12-07T00:57:40;18.60;;;9.80;;
55190;SDS011;41070;50.360;18.742;2022-12-07T01:00:08;17.60;;;9.90;;
55190;SDS011;41070;50.360;18.742;2022-12-07T01:02:41;19.00;;;10.60;;
55190;SDS011;41070;50.360;18.742;2022-12-07T01:05:09;21.40;;;10.90;;
55190;SDS011;41070;50.360;18.742;2022-12-07T01:07:37;22.00;;;11.40;;
55190;SDS011;41070;50.360;18.742;2022-12-07T01:10:05;19.10;;;11.90;;
55190;SDS011;41070;50.360;18.742;2022-12-07T01:12:41;22.40;;;11.60;;
55190;SDS011;41070;50.360;18.742;2022-12-07T01:15:24;18.90;;;11.60;;
55190;SDS011;41070;50.360;18.742;2022-12-07T01:18:06;20.00;;;11.30;;
55190;SDS011;41070;50.360;18.742;2022-12-07T01:20:45;18.90;;;11.90;;
55190;SDS011;41070;50.360;18.742;2022-12-07T01:23:36;21.10;;;11.70;;
55190;SDS011;41070;50.360;18.742;2022-12-07T01:26:12;20.30;;;11.50;;
55190;SDS011;41070;50.360;18.742;2022-12-07T01:28:46;16.40;;;9.70;;
55190;SDS011;41070;50.360;18.742;2022-12-07T01:31:19;16.00;;;8.40;;
55190;SDS011;41070;50.360;18.742;2022-12-07T01:33:53;12.40;;;7.70;;
55190;SDS011;41070;50.360;18.742;2022-12-07T01:39:00;13.50;;;7.40;;
55190;SDS011;41070;50.360;18.742;2022-12-07T01:41:34;15.00;;;8.70;;
55190;SDS011;41070;50.360;18.742;2022-12-07T01:47:02;10.40;;;6.20;;
55190;SDS011;41070;50.360;18.742;2022-12-07T01:49:42;17.80;;;7.30;;
55190;SDS011;41070;50.360;18.742;2022-12-07T01:52:25;13.00;;;7.00;;
55190;SDS011;41070;50.360;18.742;2022-12-07T01:55:00;12.10;;;6.80;;
55190;SDS011;41070;50.360;18.742;2022-12-07T01:57:34;12.60;;;6.80;;
55190;SDS011;41070;50.360;18.742;2022-12-07T02:00:10;11.90;;;6.30;;
55190;SDS011;41070;50.360;18.742;2022-12-07T02:02:49;13.40;;;6.20;;
55190;SDS011;41070;50.360;18.742;2022-12-07T02:05:25;15.50;;;8.40;;
55190;SDS011;41070;50.360;18.742;2022-12-07T02:07:56;15.90;;;7.80;;
55190;SDS011;41070;50.360;18.742;2022-12-07T02:10:29;12.90;;;7.60;;
55190;SDS011;41070;50.360;18.742;2022-12-07T02:13:04;16.00;;;8.00;;
55190;SDS011;41070;50.360;18.742;2022-12-07T02:18:38;15.30;;;8.70;;
55190;SDS011;41070;50.360;18.742;2022-12-07T02:33:01;11.50;;;7.00;;
55190;SDS011;41070;50.360;18.742;2022-12-07T02:35:44;13.30;;;6.90;;
55190;SDS011;41070;50.360;18.742;2022-12-07T02:41:00;14.30;;;7.20;;
55190;SDS011;41070;50.360;18.742;2022-12-07T02:43:38;17.50;;;7.80;;
55190;SDS011;41070;50.360;18.742;2022-12-07T02:46:16;12.90;;;7.20;;
55190;SDS011;41070;50.360;18.742;2022-12-07T02:48:47;11.70;;;6.70;;
55190;SDS011;41070;50.360;18.742;2022-12-07T02:51:17;14.80;;;7.90;;
55190;SDS011;41070;50.360;18.742;2022-12-07T02:53:46;13.90;;;7.20;;
55190;SDS011;41070;50.360;18.742;2022-12-07T03:04:33;13.30;;;6.70;;
55190;SDS011;41070;50.360;18.742;2022-12-07T03:07:33;16.10;;;7.20;;
55190;SDS011;41070;50.360;18.742;2022-12-07T03:16:55;18.60;;;8.60;;
55190;SDS011;41070;50.360;18.742;2022-12-07T03:19:30;18.50;;;8.80;;
55190;SDS011;41070;50.360;18.742;2022-12-07T03:22:02;19.70;;;9.80;;
55190;SDS011;41070;50.360;18.742;2022-12-07T03:24:34;18.70;;;8.80;;
55190;SDS011;41070;50.360;18.742;2022-12-07T03:27:13;19.90;;;9.50;;
55190;SDS011;41070;50.360;18.742;2022-12-07T03:29:48;19.10;;;9.00;;
55190;SDS011;41070;50.360;18.742;2022-12-07T03:32:33;19.80;;;9.00;;
55190;SDS011;41070;50.360;18.742;2022-12-07T03:35:03;17.50;;;8.80;;
55190;SDS011;41070;50.360;18.742;2022-12-07T03:37:40;24.50;;;11.10;;
55190;SDS011;41070;50.360;18.742;2022-12-07T03:42:48;24.20;;;9.90;;
55190;SDS011;41070;50.360;18.742;2022-12-07T03:45:24;22.00;;;9.50;;
55190;SDS011;41070;50.360;18.742;2022-12-07T03:54:00;21.30;;;9.70;;
55190;SDS011;41070;50.360;18.742;2022-12-07T03:56:38;21.00;;;10.00;;
55190;SDS011;41070;50.360;18.742;2022-12-07T03:59:07;24.10;;;9.70;;
55190;SDS011;41070;50.360;18.742;2022-12-07T04:01:35;20.30;;;9.20;;
55190;SDS011;41070;50.360;18.742;2022-12-07T04:04:03;20.10;;;9.10;;
55190;SDS011;41070;50.360;18.742;2022-12-07T04:06:33;18.90;;;9.20;;
55190;SDS011;41070;50.360;18.742;2022-12-07T04:09:01;17.50;;;9.00;;
55190;SDS011;41070;50.360;18.742;2022-12-07T04:11:28;16.00;;;8.00;;
55190;SDS011;41070;50.360;18.742;2022-12-07T04:13:56;19.60;;;9.70;;
55190;SDS011;41070;50.360;18.742;2022-12-07T04:16:41;19.00;;;8.90;;
55190;SDS011;41070;50.360;18.742;2022-12-07T04:19:08;21.90;;;9.00;;
55190;SDS011;41070;50.360;18.742;2022-12-07T04:21:36;16.30;;;8.60;;
55190;SDS011;41070;50.360;18.742;2022-12-07T04:24:06;20.20;;;9.40;;
55190;SDS011;41070;50.360;18.742;2022-12-07T04:26:34;18.00;;;8.30;;
55190;SDS011;41070;50.360;18.742;2022-12-07T04:29:01;12.90;;;7.00;;
55190;SDS011;41070;50.360;18.742;2022-12-07T04:31:30;14.50;;;6.70;;
55190;SDS011;41070;50.360;18.742;2022-12-07T04:33:57;16.10;;;7.70;;
55190;SDS011;41070;50.360;18.742;2022-12-07T04:36:25;14.90;;;7.00;;
55190;SDS011;41070;50.360;18.742;2022-12-07T04:38:53;14.90;;;7.70;;
55190;SDS011;41070;50.360;18.742;2022-12-07T04:41:22;14.70;;;8.00;;
55190;SDS011;41070;50.360;18.742;2022-12-07T04:43:54;14.00;;;7.10;;
55190;SDS011;41070;50.360;18.742;2022-12-07T04:46:23;16.00;;;8.00;;
55190;SDS011;41070;50.360;18.742;2022-12-07T04:48:52;14.80;;;7.60;;
55190;SDS011;41070;50.360;18.742;2022-12-07T04:51:22;15.90;;;8.50;;
55190;SDS011;41070;50.360;18.742;2022-12-07T04:53:52;17.90;;;7.70;;
55190;SDS011;41070;50.360;18.742;2022-12-07T04:56:21;17.20;;;6.80;;
55190;SDS011;41070;50.360;18.742;2022-12-07T04:58:50;12.90;;;7.00;;
55190;SDS011;41070;50.360;18.742;2022-12-07T05:01:19;14.20;;;7.20;;
55190;SDS011;41070;50.360;18.742;2022-12-07T05:03:48;14.60;;;7.40;;
55190;SDS011;41070;50.360;18.742;2022-12-07T05:06:16;14.80;;;7.60;;
55190;SDS011;41070;50.360;18.742;2022-12-07T05:08:44;10.60;;;5.60;;
55190;SDS011;41070;50.360;18.742;2022-12-07T05:11:12;13.20;;;7.10;;
55190;SDS011;41070;50.360;18.742;2022-12-07T05:14:02;13.10;;;6.40;;
55190;SDS011;41070;50.360;18.742;2022-12-07T05:16:30;13.30;;;6.90;;
55190;SDS011;41070;50.360;18.742;2022-12-07T05:19:00;14.20;;;7.20;;
55190;SDS011;41070;50.360;18.742;2022-12-07T05:21:27;12.60;;;7.00;;
55190;SDS011;41070;50.360;18.742;2022-12-07T05:23:55;11.00;;;6.40;;
55190;SDS011;41070;50.360;18.742;2022-12-07T05:26:22;11.00;;;6.20;;
55190;SDS011;41070;50.360;18.742;2022-12-07T05:28:55;10.20;;;6.00;;
55190;SDS011;41070;50.360;18.742;2022-12-07T05:31:32;11.50;;;6.40;;
55190;SDS011;41070;50.360;18.742;2022-12-07T05:34:00;12.20;;;6.00;;
55190;SDS011;41070;50.360;18.742;2022-12-07T05:36:28;10.20;;;5.20;;
55190;SDS011;41070;50.360;18.742;2022-12-07T05:38:57;2.90;;;2.60;;
55190;SDS011;41070;50.360;18.742;2022-12-07T05:41:25;9.80;;;6.20;;
55190;SDS011;41070;50.360;18.742;2022-12-07T05:44:09;5.70;;;3.90;;
55190;SDS011;41070;50.360;18.742;2022-12-07T05:46:37;8.00;;;4.90;;
55190;SDS011;41070;50.360;18.742;2022-12-07T05:49:05;8.90;;;4.60;;
55190;SDS011;41070;50.360;18.742;2022-12-07T05:51:32;9.10;;;4.70;;
55190;SDS011;41070;50.360;18.742;2022-12-07T05:54:00;9.20;;;4.30;;
55190;SDS011;41070;50.360;18.742;2022-12-07T05:56:28;6.50;;;4.80;;
55190;SDS011;41070;50.360;18.742;2022-12-07T05:58:55;8.50;;;4.80;;
55190;SDS011;41070;50.360;18.742;2022-12-07T06:01:40;8.30;;;5.20;;
55190;SDS011;41070;50.360;18.742;2022-12-07T06:04:08;8.90;;;5.00;;
55190;SDS011;41070;50.360;18.742;2022-12-07T06:06:36;8.40;;;4.80;;
55190;SDS011;41070;50.360;18.742;2022-12-07T06:09:04;8.60;;;4.40;;
55190;SDS011;41070;50.360;18.742;2022-12-07T06:11:32;7.80;;;4.80;;
55190;SDS011;41070;50.360;18.742;2022-12-07T06:14:17;9.80;;;4.80;;
55190;SDS011;41070;50.360;18.742;2022-12-07T06:16:45;11.90;;;5.40;;
55190;SDS011;41070;50.360;18.742;2022-12-07T06:19:15;10.10;;;5.50;;
55190;SDS011;41070;50.360;18.742;2022-12-07T06:21:43;10.60;;;6.10;;
55190;SDS011;41070;50.360;18.742;2022-12-07T06:24:10;10.70;;;5.70;;
55190;SDS011;41070;50.360;18.742;2022-12-07T06:26:39;13.60;;;6.80;;
55190;SDS011;41070;50.360;18.742;2022-12-07T06:29:08;12.30;;;7.10;;
55190;SDS011;41070;50.360;18.742;2022-12-07T06:31:36;14.30;;;8.00;;
55190;SDS011;41070;50.360;18.742;2022-12-07T06:34:17;12.40;;;7.10;;
55190;SDS011;41070;50.360;18.742;2022-12-07T06:36:55;11.70;;;6.40;;
55190;SDS011;41070;50.360;18.742;2022-12-07T06:39:47;18.00;;;8.00;;
55190;SDS011;41070;50.360;18.742;2022-12-07T06:42:15;17.40;;;8.30;;
55190;SDS011;41070;50.360;18.742;2022-12-07T06:44:42;13.10;;;7.20;;
55190;SDS011;41070;50.360;18.742;2022-12-07T06:47:10;15.00;;;7.40;;
55190;SDS011;41070;50.360;18.742;2022-12-07T06:49:38;15.30;;;7.70;;
55190;SDS011;41070;50.360;18.742;2022-12-07T06:52:06;12.80;;;7.30;;
55190;SDS011;41070;50.360;18.742;2022-12-07T06:54:33;15.10;;;7.80;;
55190;SDS011;41070;50.360;18.742;2022-12-07T06:57:01;13.70;;;7.80;;
55190;SDS011;41070;50.360;18.742;2022-12-07T06:59:30;14.20;;;7.70;;
55190;SDS011;41070;50.360;18.742;2022-12-07T07:01:58;15.80;;;7.40;;
55190;SDS011;41070;50.360;18.742;2022-12-07T07:04:28;16.50;;;8.00;;
55190;SDS011;41070;50.360;18.742;2022-12-07T07:06:57;15.50;;;7.70;;
55190;SDS011;41070;50.360;18.742;2022-12-07T07:09:25;12.90;;;7.50;;
55190;SDS011;41070;50.360;18.742;2022-12-07T07:11:53;11.10;;;5.70;;
55190;SDS011;41070;50.360;18.742;2022-12-07T07:14:21;16.40;;;7.40;;
55190;SDS011;41070;50.360;18.742;2022-12-07T07:16:48;12.80;;;6.70;;
55190;SDS011;41070;50.360;18.742;2022-12-07T07:19:16;13.60;;;7.50;;
55190;SDS011;41070;50.360;18.742;2022-12-07T07:21:43;12.20;;;7.20;;
55190;SDS011;41070;50.360;18.742;2022-12-07T07:24:11;12.50;;;7.00;;
55190;SDS011;41070;50.360;18.742;2022-12-07T07:26:38;12.40;;;6.90;;
55190;SDS011;41070;50.360;18.742;2022-12-07T07:29:06;13.60;;;7.30;;
55190;SDS011;41070;50.360;18.742;2022-12-07T07:31:34;13.50;;;6.70;;
55190;SDS011;41070;50.360;18.742;2022-12-07T07:34:03;13.10;;;6.90;;
55190;SDS011;41070;50.360;18.742;2022-12-07T07:36:32;11.10;;;5.90;;
55190;SDS011;41070;50.360;18.742;2022-12-07T07:39:00;12.50;;;6.90;;
55190;SDS011;41070;50.360;18.742;2022-12-07T07:41:27;14.10;;;6.70;;
55190;SDS011;41070;50.360;18.742;2022-12-07T07:43:55;12.80;;;6.30;;
55190;SDS011;41070;50.360;18.742;2022-12-07T07:46:22;13.20;;;6.80;;
55190;SDS011;41070;50.360;18.742;2022-12-07T07:48:50;14.80;;;6.30;;
55190;SDS011;41070;50.360;18.742;2022-12-07T07:51:18;11.90;;;6.80;;
55190;SDS011;41070;50.360;18.742;2022-12-07T07:53:45;13.70;;;6.90;;
55190;SDS011;41070;50.360;18.742;2022-12-07T07:56:13;12.40;;;5.80;;
55190;SDS011;41070;50.360;18.742;2022-12-07T07:58:41;12.70;;;6.70;;
55190;SDS011;41070;50.360;18.742;2022-12-07T08:01:08;15.40;;;6.30;;
55190;SDS011;41070;50.360;18.742;2022-12-07T08:03:36;14.40;;;6.90;;
55190;SDS011;41070;50.360;18.742;2022-12-07T08:06:04;14.70;;;7.70;;
55190;SDS011;41070;50.360;18.742;2022-12-07T08:08:31;15.30;;;7.40;;
55190;SDS011;41070;50.360;18.742;2022-12-07T08:10:59;13.60;;;8.10;;
55190;SDS011;41070;50.360;18.742;2022-12-07T08:13:27;12.80;;;6.70;;
55190;SDS011;41070;50.360;18.742;2022-12-07T08:15:55;13.70;;;7.70;;
55190;SDS011;41070;50.360;18.742;2022-12-07T08:18:22;14.70;;;7.50;;
55190;SDS011;41070;50.360;18.742;2022-12-07T08:20:50;14.70;;;7.90;;
55190;SDS011;41070;50.360;18.742;2022-12-07T08:23:18;15.00;;;7.20;;
55190;SDS011;41070;50.360;18.742;2022-12-07T08:25:45;14.00;;;6.90;;
55190;SDS011;41070;50.360;18.742;2022-12-07T08:28:13;12.40;;;7.30;;
55190;SDS011;41070;50.360;18.742;2022-12-07T08:30:40;15.80;;;8.20;;
55190;SDS011;41070;50.360;18.742;2022-12-07T08:33:08;16.80;;;7.50;;
55190;SDS011;41070;50.360;18.742;2022-12-07T08:35:37;15.50;;;7.60;;
55190;SDS011;41070;50.360;18.742;2022-12-07T08:38:05;16.60;;;7.70;;
55190;SDS011;41070;50.360;18.742;2022-12-07T08:40:33;14.40;;;6.80;;
55190;SDS011;41070;50.360;18.742;2022-12-07T08:43:01;15.20;;;7.40;;
55190;SDS011;41070;50.360;18.742;2022-12-07T08:45:28;14.60;;;7.80;;
55190;SDS011;41070;50.360;18.742;2022-12-07T08:48:08;13.50;;;6.40;;
55190;SDS011;41070;50.360;18.742;2022-12-07T08:50:38;17.10;;;8.30;;
55190;SDS011;41070;50.360;18.742;2022-12-07T08:53:06;14.20;;;7.50;;
55190;SDS011;41070;50.360;18.742;2022-12-07T08:55:34;11.10;;;6.20;;
55190;SDS011;41070;50.360;18.742;2022-12-07T08:58:02;16.90;;;7.60;;
55190;SDS011;41070;50.360;18.742;2022-12-07T09:00:30;13.10;;;6.50;;
55190;SDS011;41070;50.360;18.742;2022-12-07T09:02:58;11.50;;;5.90;;
55190;SDS011;41070;50.360;18.742;2022-12-07T09:05:25;11.00;;;6.20;;
55190;SDS011;41070;50.360;18.742;2022-12-07T09:07:54;12.50;;;6.30;;
55190;SDS011;41070;50.360;18.742;2022-12-07T09:10:24;10.10;;;5.70;;
55190;SDS011;41070;50.360;18.742;2022-12-07T09:12:52;10.80;;;6.40;;
55190;SDS011;41070;50.360;18.742;2022-12-07T09:15:20;9.70;;;5.40;;
55190;SDS011;41070;50.360;18.742;2022-12-07T09:17:47;12.10;;;6.30;;
55190;SDS011;41070;50.360;18.742;2022-12-07T09:20:15;7.60;;;4.60;;
55190;SDS011;41070;50.360;18.742;2022-12-07T09:22:42;11.90;;;6.20;;
55190;SDS011;41070;50.360;18.742;2022-12-07T09:25:10;11.80;;;5.10;;
55190;SDS011;41070;50.360;18.742;2022-12-07T09:27:38;11.10;;;5.70;;
55190;SDS011;41070;50.360;18.742;2022-12-07T09:30:23;10.20;;;5.20;;
55190;SDS011;41070;50.360;18.742;2022-12-07T09:32:53;8.90;;;4.80;;
55190;SDS011;41070;50.360;18.742;2022-12-07T09:35:21;9.20;;;5.00;;
55190;SDS011;41070;50.360;18.742;2022-12-07T09:37:58;8.80;;;4.70;;
55190;SDS011;41070;50.360;18.742;2022-12-07T09:40:27;8.80;;;5.90;;
55190;SDS011;41070;50.360;18.742;2022-12-07T09:42:56;11.00;;;7.10;;
55190;SDS011;41070;50.360;18.742;2022-12-07T09:45:26;13.20;;;7.60;;
55190;SDS011;41070;50.360;18.742;2022-12-07T09:47:59;10.90;;;6.10;;
55190;SDS011;41070;50.360;18.742;2022-12-07T09:50:27;15.50;;;8.50;;
55190;SDS011;41070;50.360;18.742;2022-12-07T09:53:06;17.10;;;8.50;;
55190;SDS011;41070;50.360;18.742;2022-12-07T09:55:40;22.70;;;12.40;;
55190;SDS011;41070;50.360;18.742;2022-12-07T09:58:17;26.00;;;13.70;;
55190;SDS011;41070;50.360;18.742;2022-12-07T10:00:50;25.50;;;13.00;;
55190;SDS011;41070;50.360;18.742;2022-12-07T10:03:26;30.40;;;14.40;;
55190;SDS011;41070;50.360;18.742;2022-12-07T10:05:54;22.60;;;10.40;;
55190;SDS011;41070;50.360;18.742;2022-12-07T10:08:25;29.60;;;12.30;;
55190;SDS011;41070;50.360;18.742;2022-12-07T10:10:54;30.40;;;12.90;;
55190;SDS011;41070;50.360;18.742;2022-12-07T10:19:59;24.00;;;12.20;;
55190;SDS011;41070;50.360;18.742;2022-12-07T10:22:53;24.00;;;11.40;;
55190;SDS011;41070;50.360;18.742;2022-12-07T10:25:29;26.80;;;13.70;;
55190;SDS011;41070;50.360;18.742;2022-12-07T10:31:13;29.70;;;13.30;;
55190;SDS011;41070;50.360;18.742;2022-12-07T10:33:54;25.20;;;11.80;;
55190;SDS011;41070;50.360;18.742;2022-12-07T10:36:27;27.60;;;11.60;;
55190;SDS011;41070;50.360;18.742;2022-12-07T10:44:30;19.50;;;10.00;;
55190;SDS011;41070;50.360;18.742;2022-12-07T11:01:26;14.90;;;7.60;;
55190;SDS011;41070;50.360;18.742;2022-12-07T11:04:35;12.40;;;6.70;;
55190;SDS011;41070;50.360;18.742;2022-12-07T11:07:17;12.60;;;6.80;;
55190;SDS011;41070;50.360;18.742;2022-12-07T11:15:31;12.70;;;7.60;;
55190;SDS011;41070;50.360;18.742;2022-12-07T11:18:22;14.50;;;6.30;;
55190;SDS011;41070;50.360;18.742;2022-12-07T11:29:29;13.30;;;6.80;;
55190;SDS011;41070;50.360;18.742;2022-12-07T11:37:59;14.00;;;7.50;;
55190;SDS011;41070;50.360;18.742;2022-12-07T11:40:31;14.80;;;8.70;;
55190;SDS011;41070;50.360;18.742;2022-12-07T11:45:57;11.90;;;6.90;;
55190;SDS011;41070;50.360;18.742;2022-12-07T11:51:06;13.70;;;7.20;;
55190;SDS011;41070;50.360;18.742;2022-12-07T11:53:47;9.60;;;6.30;;
55190;SDS011;41070;50.360;18.742;2022-12-07T11:56:29;13.00;;;7.20;;
55190;SDS011;41070;50.360;18.742;2022-12-07T12:02:32;8.80;;;5.20;;
55190;SDS011;41070;50.360;18.742;2022-12-07T12:05:21;8.60;;;5.30;;
55190;SDS011;41070;50.360;18.742;2022-12-07T12:10:59;9.30;;;5.10;;
55190;SDS011;41070;50.360;18.742;2022-12-07T12:20:04;7.90;;;4.50;;
55190;SDS011;41070;50.360;18.742;2022-12-07T12:22:21;5.70;;;3.90;;
55190;SDS011;41070;50.360;18.742;2022-12-07T12:24:56;9.70;;;5.30;;
55190;SDS011;41070;50.360;18.742;2022-12-07T12:27:25;5.50;;;3.70;;
55190;SDS011;41070;50.360;18.742;2022-12-07T12:29:59;7.00;;;4.70;;
55190;SDS011;41070;50.360;18.742;2022-12-07T12:37:53;6.20;;;3.90;;
55190;SDS011;41070;50.360;18.742;2022-12-07T12:43:02;8.60;;;4.30;;
55190;SDS011;41070;50.360;18.742;2022-12-07T12:48:45;6.80;;;4.00;;
55190;SDS011;41070;50.360;18.742;2022-12-07T12:54:14;5.40;;;3.60;;
55190;SDS011;41070;50.360;18.742;2022-12-07T12:59:29;5.50;;;4.00;;
55190;SDS011;41070;50.360;18.742;2022-12-07T13:05:00;6.00;;;3.80;;
55190;SDS011;41070;50.360;18.742;2022-12-07T13:20:06;4.80;;;2.90;;
55190;SDS011;41070;50.360;18.742;2022-12-07T13:22:35;6.90;;;4.10;;
55190;SDS011;41070;50.360;18.742;2022-12-07T13:25:12;6.40;;;3.70;;
55190;SDS011;41070;50.360;18.742;2022-12-07T13:28:09;5.40;;;3.50;;
55190;SDS011;41070;50.360;18.742;2022-12-07T13:33:43;5.40;;;3.30;;
55190;SDS011;41070;50.360;18.742;2022-12-07T13:36:22;5.90;;;3.70;;
55190;SDS011;41070;50.360;18.742;2022-12-07T13:38:57;6.30;;;3.90;;
55190;SDS011;41070;50.360;18.742;2022-12-07T13:41:27;6.50;;;4.40;;
55190;SDS011;41070;50.360;18.742;2022-12-07T13:50:54;7.40;;;4.70;;
55190;SDS011;41070;50.360;18.742;2022-12-07T13:53:24;7.10;;;4.60;;
55190;SDS011;41070;50.360;18.742;2022-12-07T13:55:54;6.40;;;4.70;;
55190;SDS011;41070;50.360;18.742;2022-12-07T13:58:24;6.00;;;4.20;;
55190;SDS011;41070;50.360;18.742;2022-12-07T14:01:15;5.50;;;3.60;;
55190;SDS011;41070;50.360;18.742;2022-12-07T14:03:44;7.70;;;4.50;;
55190;SDS011;41070;50.360;18.742;2022-12-07T14:09:05;6.70;;;4.40;;
55190;SDS011;41070;50.360;18.742;2022-12-07T14:11:34;5.60;;;4.40;;
55190;SDS011;41070;50.360;18.742;2022-12-07T14:14:03;6.60;;;4.20;;
55190;SDS011;41070;50.360;18.742;2022-12-07T14:16:42;7.30;;;4.40;;
55190;SDS011;41070;50.360;18.742;2022-12-07T14:22:23;6.70;;;3.50;;
55190;SDS011;41070;50.360;18.742;2022-12-07T14:24:58;6.80;;;3.50;;
55190;SDS011;41070;50.360;18.742;2022-12-07T14:27:39;5.70;;;3.90;;
55190;SDS011;41070;50.360;18.742;2022-12-07T14:30:15;6.00;;;3.90;;
55190;SDS011;41070;50.360;18.742;2022-12-07T14:32:48;4.80;;;3.60;;
55190;SDS011;41070;50.360;18.742;2022-12-07T14:35:24;5.70;;;4.20;;
55190;SDS011;41070;50.360;18.742;2022-12-07T14:37:53;8.40;;;4.20;;
55190;SDS011;41070;50.360;18.742;2022-12-07T14:40:33;6.20;;;3.80;;
55190;SDS011;41070;50.360;18.742;2022-12-07T14:43:16;7.50;;;3.90;;
55190;SDS011;41070;50.360;18.742;2022-12-07T14:45:46;6.20;;;4.70;;
55190;SDS011;41070;50.360;18.742;2022-12-07T14:48:14;7.00;;;4.20;;
55190;SDS011;41070;50.360;18.742;2022-12-07T14:50:49;6.40;;;4.30;;
55190;SDS011;41070;50.360;18.742;2022-12-07T14:53:22;7.90;;;4.50;;
55190;SDS011;41070;50.360;18.742;2022-12-07T14:55:56;7.30;;;4.90;;
55190;SDS011;41070;50.360;18.742;2022-12-07T14:58:32;6.70;;;3.60;;
55190;SDS011;41070;50.360;18.742;2022-12-07T15:01:02;5.90;;;3.70;;
55190;SDS011;41070;50.360;18.742;2022-12-07T15:03:30;8.50;;;4.60;;
55190;SDS011;41070;50.360;18.742;2022-12-07T15:06:00;5.60;;;3.40;;
55190;SDS011;41070;50.360;18.742;2022-12-07T15:08:28;6.70;;;4.30;;
55190;SDS011;41070;50.360;18.742;2022-12-07T15:10:56;5.60;;;3.50;;
55190;SDS011;41070;50.360;18.742;2022-12-07T15:13:23;7.20;;;4.50;;
55190;SDS011;41070;50.360;18.742;2022-12-07T15:16:12;6.20;;;4.10;;
55190;SDS011;41070;50.360;18.742;2022-12-07T15:18:43;4.40;;;2.60;;
55190;SDS011;41070;50.360;18.742;2022-12-07T15:21:14;6.30;;;3.90;;
55190;SDS011;41070;50.360;18.742;2022-12-07T15:23:42;7.20;;;4.00;;
55190;SDS011;41070;50.360;18.742;2022-12-07T15:26:10;8.80;;;4.40;;
55190;SDS011;41070;50.360;18.742;2022-12-07T15:28:44;7.50;;;4.40;;
55190;SDS011;41070;50.360;18.742;2022-12-07T15:31:22;7.50;;;4.20;;
55190;SDS011;41070;50.360;18.742;2022-12-07T15:33:54;7.20;;;4.70;;
55190;SDS011;41070;50.360;18.742;2022-12-07T15:43:24;6.00;;;3.80;;
55190;SDS011;41070;50.360;18.742;2022-12-07T15:46:19;5.90;;;3.40;;
55190;SDS011;41070;50.360;18.742;2022-12-07T15:48:51;7.20;;;4.10;;
55190;SDS011;41070;50.360;18.742;2022-12-07T15:51:31;5.30;;;3.90;;
55190;SDS011;41070;50.360;18.742;2022-12-07T15:54:20;5.10;;;3.50;;
55190;SDS011;41070;50.360;18.742;2022-12-07T15:56:51;6.30;;;4.10;;
55190;SDS011;41070;50.360;18.742;2022-12-07T15:59:29;7.00;;;4.20;;
55190;SDS011;41070;50.360;18.742;2022-12-07T16:02:01;6.00;;;3.90;;
55190;SDS011;41070;50.360;18.742;2022-12-07T16:04:38;6.80;;;3.50;;
55190;SDS011;41070;50.360;18.742;2022-12-07T16:07:13;6.80;;;4.00;;
55190;SDS011;41070;50.360;18.742;2022-12-07T16:09:46;5.80;;;3.80;;
55190;SDS011;41070;50.360;18.742;2022-12-07T16:12:19;6.40;;;3.90;;
55190;SDS011;41070;50.360;18.742;2022-12-07T16:14:56;6.60;;;3.70;;
55190;SDS011;41070;50.360;18.742;2022-12-07T16:17:30;4.90;;;3.50;;
55190;SDS011;41070;50.360;18.742;2022-12-07T16:20:03;6.90;;;4.20;;
55190;SDS011;41070;50.360;18.742;2022-12-07T16:22:39;5.90;;;3.90;;
55190;SDS011;41070;50.360;18.742;2022-12-07T16:25:29;7.70;;;4.60;;
55190;SDS011;41070;50.360;18.742;2022-12-07T16:28:01;6.20;;;4.00;;
55190;SDS011;41070;50.360;18.742;2022-12-07T16:30:38;6.10;;;4.40;;
55190;SDS011;41070;50.360;18.742;2022-12-07T16:33:09;7.10;;;4.20;;
55190;SDS011;41070;50.360;18.742;2022-12-07T16:35:41;7.40;;;4.10;;
55190;SDS011;41070;50.360;18.742;2022-12-07T16:38:14;6.20;;;4.50;;
55190;SDS011;41070;50.360;18.742;2022-12-07T16:40:52;7.50;;;4.60;;
55190;SDS011;41070;50.360;18.742;2022-12-07T16:43:21;7.90;;;5.30;;
55190;SDS011;41070;50.360;18.742;2022-12-07T16:45:52;13.70;;;7.20;;
55190;SDS011;41070;50.360;18.742;2022-12-07T16:48:22;12.60;;;7.20;;
55190;SDS011;41070;50.360;18.742;2022-12-07T16:50:50;16.00;;;7.60;;
55190;SDS011;41070;50.360;18.742;2022-12-07T16:53:23;15.00;;;7.30;;
55190;SDS011;41070;50.360;18.742;2022-12-07T16:55:54;11.20;;;6.30;;
55190;SDS011;41070;50.360;18.742;2022-12-07T16:58:21;12.90;;;6.80;;
55190;SDS011;41070;50.360;18.742;2022-12-07T17:00:49;10.10;;;6.30;;
55190;SDS011;41070;50.360;18.742;2022-12-07T17:03:17;13.50;;;6.20;;
55190;SDS011;41070;50.360;18.742;2022-12-07T17:05:44;11.10;;;6.10;;
55190;SDS011;41070;50.360;18.742;2022-12-07T17:08:13;13.00;;;6.50;;
55190;SDS011;41070;50.360;18.742;2022-12-07T17:10:42;12.20;;;6.40;;
55190;SDS011;41070;50.360;18.742;2022-12-07T17:13:13;9.20;;;6.10;;
55190;SDS011;41070;50.360;18.742;2022-12-07T17:15:59;11.40;;;6.50;;
55190;SDS011;41070;50.360;18.742;2022-12-07T17:18:30;11.90;;;6.70;;
55190;SDS011;41070;50.360;18.742;2022-12-07T17:21:05;10.80;;;6.30;;
55190;SDS011;41070;50.360;18.742;2022-12-07T17:24:24;7.00;;;4.10;;
55190;SDS011;41070;50.360;18.742;2022-12-07T17:26:51;10.90;;;5.90;;
55190;SDS011;41070;50.360;18.742;2022-12-07T17:29:23;8.40;;;5.00;;
55190;SDS011;41070;50.360;18.742;2022-12-07T17:32:04;6.80;;;4.30;;
55190;SDS011;41070;50.360;18.742;2022-12-07T17:34:32;11.90;;;6.00;;
55190;SDS011;41070;50.360;18.742;2022-12-07T17:37:24;11.80;;;5.30;;
55190;SDS011;41070;50.360;18.742;2022-12-07T17:40:05;10.90;;;5.40;;
55190;SDS011;41070;50.360;18.742;2022-12-07T17:42:42;12.00;;;5.70;;
55190;SDS011;41070;50.360;18.742;2022-12-07T17:45:14;9.40;;;6.10;;
55190;SDS011;41070;50.360;18.742;2022-12-07T17:47:46;8.90;;;5.70;;
55190;SDS011;41070;50.360;18.742;2022-12-07T17:50:17;9.30;;;6.00;;
55190;SDS011;41070;50.360;18.742;2022-12-07T17:53:10;10.40;;;5.20;;